createdAt,value
2022-12-25T00:01:19.266Z,12.80
2022-12-25T00:03:46.704Z,12.80
2022-12-25T00:06:13.892Z,12.80
2022-12-25T00:08:41.070Z,12.70
2022-12-25T00:11:09.459Z,12.70
2022-12-25T00:13:36.648Z,12.80
2022-12-25T00:16:11.512Z,12.70
2022-12-25T00:18:38.488Z,12.70
2022-12-25T00:21:06.112Z,12.70
2022-12-25T00:23:33.231Z,12.70
2022-12-25T00:26:03.299Z,12.70
2022-12-25T00:28:30.244Z,12.70
2022-12-25T05:30:39.068Z,12.10
2022-12-25T05:33:05.959Z,12.00
2022-12-25T05:35:32.859Z,12.10
2022-12-25T05:37:59.778Z,12.10
2022-12-25T05:40:26.671Z,12.00
2022-12-25T05:42:53.587Z,12.00
2022-12-25T05:45:20.617Z,12.00
2022-12-25T05:47:47.587Z,11.90
2022-12-25T05:50:14.471Z,12.00
2022-12-25T05:52:41.395Z,11.90
2022-12-25T05:55:08.460Z,11.90
2022-12-25T05:57:35.380Z,12.00
2022-12-25T06:00:02.353Z,12.00
2022-12-25T06:02:29.358Z,12.00
2022-12-25T06:04:56.476Z,12.00
2022-12-25T06:07:23.410Z,12.00
2022-12-25T06:09:50.338Z,11.90
2022-12-25T06:12:17.257Z,11.90
2022-12-25T06:14:44.173Z,11.90
2022-12-25T06:17:11.211Z,11.90
2022-12-25T06:19:38.164Z,11.90
2022-12-25T06:22:05.101Z,11.90
2022-12-25T06:24:32.086Z,11.90
2022-12-25T06:26:59.014Z,11.90
2022-12-25T06:29:26.010Z,11.90
2022-12-25T06:31:57.138Z,11.90
2022-12-25T06:34:24.442Z,11.90
2022-12-25T06:36:51.420Z,11.90
2022-12-25T06:39:18.468Z,11.90
2022-12-25T06:41:45.405Z,11.90
2022-12-25T06:44:12.281Z,11.80
2022-12-25T06:46:39.239Z,11.80
2022-12-25T06:49:06.194Z,11.80
2022-12-25T06:51:33.473Z,11.80
2022-12-25T06:54:03.801Z,11.80
2022-12-25T06:56:31.571Z,11.90
2022-12-25T06:59:00.309Z,11.80
2022-12-25T07:01:32.086Z,11.80
2022-12-25T07:04:01.160Z,11.80
2022-12-25T07:06:28.176Z,11.80
2022-12-25T07:08:55.206Z,11.80
2022-12-25T07:11:22.137Z,11.80
2022-12-25T07:13:49.105Z,11.80
2022-12-25T07:16:16.297Z,11.80
2022-12-25T07:18:43.267Z,11.80
2022-12-25T07:21:11.621Z,11.90
2022-12-25T07:23:38.949Z,11.80
2022-12-25T07:26:05.933Z,11.80
2022-12-25T07:28:33.279Z,11.80
2022-12-25T07:31:04.099Z,11.80
2022-12-25T07:33:31.181Z,11.70
2022-12-25T07:35:58.209Z,11.80
2022-12-25T07:38:25.185Z,11.80
2022-12-25T07:40:52.244Z,11.80
2022-12-25T07:43:19.561Z,11.80
2022-12-25T07:45:46.553Z,11.80
2022-12-25T07:48:16.699Z,11.80
2022-12-25T07:50:44.139Z,11.90
2022-12-25T07:53:11.211Z,11.80
2022-12-25T07:55:38.192Z,11.80
2022-12-25T07:58:07.239Z,11.90
2022-12-25T08:00:34.367Z,11.80
2022-12-25T08:03:01.422Z,11.80
2022-12-25T08:05:28.542Z,11.80
2022-12-25T08:07:57.639Z,11.70
2022-12-25T08:10:25.288Z,11.70
2022-12-25T08:12:55.181Z,11.60
2022-12-25T08:15:22.144Z,11.70
2022-12-25T08:17:49.038Z,11.60
2022-12-25T08:20:16.013Z,11.70
2022-12-25T08:22:42.895Z,11.60
2022-12-25T08:25:09.959Z,11.70
2022-12-25T08:27:37.036Z,11.60
2022-12-25T08:30:04.320Z,11.60
2022-12-25T08:32:34.113Z,11.60
2022-12-25T08:35:01.031Z,11.50
2022-12-25T08:37:29.823Z,11.50
2022-12-25T08:39:56.762Z,11.50
2022-12-25T08:42:23.885Z,11.50
2022-12-25T08:44:50.820Z,11.40
2022-12-25T08:47:17.791Z,11.50
2022-12-25T08:49:44.677Z,11.40
2022-12-25T08:52:11.824Z,11.30
2022-12-25T08:54:38.716Z,11.40
2022-12-25T08:57:05.698Z,11.40
2022-12-25T08:59:32.608Z,11.40
2022-12-25T09:01:59.940Z,11.40
2022-12-25T09:04:27.069Z,11.40
2022-12-25T09:06:54.062Z,11.50
2022-12-25T09:09:21.017Z,11.50
2022-12-25T09:11:49.830Z,11.50
2022-12-25T09:14:16.982Z,11.50
2022-12-25T09:16:43.884Z,11.50
2022-12-25T09:19:10.914Z,11.50
2022-12-25T09:21:37.808Z,11.50
2022-12-25T09:24:04.858Z,11.50
2022-12-25T09:26:31.796Z,11.50
2022-12-25T09:28:58.757Z,11.50
2022-12-25T09:31:25.872Z,11.50
2022-12-25T09:33:55.630Z,11.50
2022-12-25T09:36:23.440Z,11.50
2022-12-25T09:38:50.963Z,11.50
2022-12-25T09:41:23.823Z,11.50
2022-12-25T09:44:10.176Z,11.50
2022-12-25T09:46:52.620Z,11.50
2022-12-25T09:49:19.864Z,11.60
2022-12-25T09:51:49.280Z,11.60
2022-12-25T09:54:32.966Z,11.70
2022-12-25T09:56:59.995Z,11.80
2022-12-25T09:59:27.356Z,11.80
2022-12-25T10:01:54.350Z,11.90
2022-12-25T10:04:40.803Z,11.90
2022-12-25T10:07:17.765Z,11.90
2022-12-25T10:09:59.693Z,11.90
2022-12-25T10:12:40.354Z,12.00
2022-12-25T10:15:16.363Z,12.00
2022-12-25T10:18:06.458Z,12.00
2022-12-25T10:20:35.068Z,12.00
2022-12-25T10:23:03.792Z,12.10
2022-12-25T10:25:31.684Z,12.10
2022-12-25T10:28:02.999Z,12.10
2022-12-25T10:30:30.783Z,12.20
2022-12-25T10:32:58.173Z,12.20
2022-12-25T10:35:26.821Z,12.40
2022-12-25T10:37:57.575Z,12.30
2022-12-25T10:40:28.489Z,12.30
2022-12-25T10:42:58.842Z,12.30
2022-12-25T10:45:25.744Z,12.30
2022-12-25T10:48:06.807Z,12.30
2022-12-25T10:50:34.739Z,12.30
2022-12-25T10:53:04.724Z,12.30
2022-12-25T10:55:32.075Z,12.30
2022-12-25T10:57:59.152Z,12.30
2022-12-25T11:00:30.354Z,12.30
2022-12-25T11:02:57.888Z,12.30
2022-12-25T11:05:31.179Z,12.30
2022-12-25T11:08:00.059Z,12.30
2022-12-25T11:10:43.892Z,12.30
2022-12-25T11:13:18.948Z,12.30
2022-12-25T11:15:47.987Z,12.30
2022-12-25T11:18:19.833Z,12.30
2022-12-25T11:20:58.132Z,12.40
2022-12-25T11:23:26.250Z,12.40
2022-12-25T11:25:57.260Z,12.40
2022-12-25T11:28:25.321Z,12.40
2022-12-25T11:31:03.386Z,12.30
2022-12-25T11:33:33.942Z,12.30
2022-12-25T11:36:03.770Z,12.30
2022-12-25T11:38:30.746Z,12.30
2022-12-25T11:41:01.663Z,12.30
2022-12-25T11:43:46.782Z,12.30
2022-12-25T11:46:22.213Z,12.30
2022-12-25T11:48:55.922Z,12.30
2022-12-25T11:51:27.725Z,12.40
2022-12-25T11:53:55.968Z,12.40
2022-12-25T11:56:27.997Z,12.60
2022-12-25T11:59:04.043Z,12.40
2022-12-25T12:01:34.088Z,12.40
2022-12-25T12:04:02.526Z,12.40
2022-12-25T12:06:52.665Z,12.40
2022-12-25T12:09:38.001Z,12.40
2022-12-25T12:12:08.965Z,12.30
2022-12-25T12:14:45.568Z,12.30
2022-12-25T12:17:13.386Z,12.40
2022-12-25T12:19:40.324Z,12.40
2022-12-25T12:22:14.577Z,12.40
2022-12-25T12:24:42.765Z,12.40
2022-12-25T12:27:15.610Z,12.40
2022-12-25T12:29:44.074Z,12.40
2022-12-25T12:32:29.551Z,12.40
2022-12-25T12:34:56.743Z,12.40
2022-12-25T12:37:32.054Z,12.40
2022-12-25T12:39:59.509Z,12.40
2022-12-25T12:42:28.708Z,12.40
2022-12-25T12:44:56.616Z,12.40
2022-12-25T12:47:27.907Z,12.50
2022-12-25T12:49:59.220Z,12.50
2022-12-25T12:52:31.985Z,12.60
2022-12-25T12:55:06.793Z,12.60
2022-12-25T12:57:39.228Z,12.60
2022-12-25T13:00:10.240Z,12.70
2022-12-25T13:03:03.914Z,12.70
2022-12-25T13:05:36.691Z,12.70
2022-12-25T13:08:03.556Z,12.80
2022-12-25T13:10:36.150Z,12.90
2022-12-25T13:13:05.220Z,12.80
2022-12-25T13:15:34.223Z,12.70
2022-12-25T13:18:03.320Z,12.70
2022-12-25T13:20:40.079Z,12.70
2022-12-25T13:23:25.720Z,12.70
2022-12-25T13:25:56.493Z,12.60
2022-12-25T13:28:27.388Z,12.60
2022-12-25T13:31:01.109Z,12.60
2022-12-25T13:33:28.132Z,12.60
2022-12-25T13:35:55.189Z,12.50
2022-12-25T13:38:22.871Z,12.60
2022-12-25T13:41:11.403Z,12.60
2022-12-25T13:43:39.541Z,12.60
2022-12-25T13:46:06.711Z,12.60
2022-12-25T13:48:33.655Z,12.60
2022-12-25T13:51:01.746Z,12.60
2022-12-25T13:53:28.944Z,12.60
2022-12-25T13:55:58.167Z,12.50
2022-12-25T13:58:27.452Z,12.60
2022-12-25T14:00:56.723Z,12.50
2022-12-25T14:03:43.124Z,12.60
2022-12-25T14:06:17.878Z,12.40
2022-12-25T14:08:44.962Z,12.30
2022-12-25T14:11:14.113Z,12.30
2022-12-25T14:13:42.737Z,12.30
2022-12-25T14:16:10.660Z,12.30
2022-12-25T14:18:37.714Z,12.30
2022-12-25T14:21:06.136Z,12.40
2022-12-25T14:23:53.354Z,12.40
2022-12-25T14:26:20.337Z,12.50
2022-12-25T14:28:54.841Z,12.50
2022-12-25T14:31:23.308Z,12.50
2022-12-25T14:33:53.404Z,12.60
2022-12-25T14:36:20.345Z,12.60
2022-12-25T14:39:00.938Z,12.60
2022-12-25T14:41:37.736Z,12.60
2022-12-25T14:44:06.674Z,12.60
2022-12-25T14:46:34.536Z,12.60
2022-12-25T14:49:02.510Z,12.50
2022-12-25T14:51:30.489Z,12.50
2022-12-25T14:53:58.748Z,12.50
2022-12-25T14:56:26.548Z,12.40
2022-12-25T14:58:55.015Z,12.50
2022-12-25T15:01:25.393Z,12.50
2022-12-25T15:04:02.674Z,12.60
2022-12-25T15:06:30.044Z,12.60
2022-12-25T15:09:00.991Z,12.60
2022-12-25T15:11:28.395Z,12.70
2022-12-25T15:13:55.513Z,12.70
2022-12-25T15:16:24.630Z,12.70
2022-12-25T15:18:52.363Z,12.70
2022-12-25T15:21:26.763Z,12.60
2022-12-25T15:23:54.511Z,12.60
2022-12-25T15:26:21.806Z,12.60
2022-12-25T15:28:48.793Z,12.80
2022-12-25T15:31:31.836Z,12.70
2022-12-25T15:34:00.214Z,12.70
2022-12-25T15:36:27.635Z,12.70
2022-12-25T15:38:54.863Z,12.70
2022-12-25T15:41:43.422Z,12.70
2022-12-25T15:44:11.215Z,12.70
2022-12-25T15:46:38.746Z,12.70
2022-12-25T15:49:05.928Z,12.90
2022-12-25T15:51:32.851Z,12.70
2022-12-25T15:53:59.731Z,12.80
2022-12-25T15:56:26.919Z,12.80
2022-12-25T15:58:53.879Z,12.80
2022-12-25T16:01:21.132Z,12.80
2022-12-25T16:03:48.171Z,12.80
2022-12-25T16:06:16.255Z,12.90
2022-12-25T16:08:43.429Z,13.10
2022-12-25T16:11:10.837Z,12.90
2022-12-25T16:13:37.810Z,12.80
2022-12-25T16:16:05.217Z,12.80
2022-12-25T16:18:32.229Z,12.70
2022-12-25T16:20:59.640Z,12.70
2022-12-25T16:23:26.587Z,12.70
2022-12-25T16:25:53.489Z,12.80
2022-12-25T16:28:20.420Z,12.80
2022-12-25T16:30:47.425Z,12.80
2022-12-25T16:33:14.447Z,12.80
2022-12-25T16:35:41.358Z,12.80
2022-12-25T16:38:08.277Z,13.00
2022-12-25T16:40:35.225Z,12.80
2022-12-25T16:43:02.113Z,12.90
2022-12-25T16:45:29.068Z,12.90
2022-12-25T16:47:56.683Z,12.90
2022-12-25T16:50:23.820Z,12.90
2022-12-25T16:52:50.730Z,12.90
2022-12-25T16:55:17.628Z,12.90
2022-12-25T16:57:47.605Z,12.90
2022-12-25T17:00:14.986Z,12.90
2022-12-25T17:02:42.226Z,12.90
2022-12-25T17:05:09.737Z,12.90
2022-12-25T17:07:37.345Z,12.90
2022-12-25T17:10:05.205Z,12.80
2022-12-25T17:12:32.964Z,12.80
2022-12-25T17:14:59.861Z,12.80
2022-12-25T17:17:26.899Z,12.90
2022-12-25T17:19:53.846Z,12.80
2022-12-25T17:22:20.772Z,12.90
2022-12-25T17:24:47.691Z,12.80
2022-12-25T17:27:14.654Z,12.90
2022-12-25T17:29:43.786Z,12.80
2022-12-25T17:32:11.218Z,12.80
2022-12-25T17:34:38.169Z,12.90
2022-12-25T17:37:05.514Z,12.80
2022-12-25T17:39:32.677Z,12.80
2022-12-25T17:41:59.700Z,12.90
2022-12-25T17:44:27.302Z,12.80
2022-12-25T17:46:54.321Z,12.70
2022-12-25T17:49:22.193Z,12.70
2022-12-25T17:51:49.200Z,12.90
2022-12-25T17:54:16.139Z,12.80
2022-12-25T17:56:43.084Z,12.70
2022-12-25T17:59:17.810Z,12.80
2022-12-25T18:01:45.748Z,12.70
2022-12-25T18:04:12.982Z,12.70
2022-12-25T18:06:39.987Z,12.70
2022-12-25T18:09:07.126Z,12.70
2022-12-25T18:11:36.884Z,12.70
2022-12-25T18:14:05.347Z,12.80
2022-12-25T18:16:33.726Z,12.70
2022-12-25T18:19:00.758Z,12.70
2022-12-25T18:21:28.082Z,12.70
2022-12-25T18:23:55.023Z,12.70
2022-12-25T18:26:22.175Z,12.80
2022-12-25T18:28:49.942Z,12.70
2022-12-25T18:31:18.531Z,12.70
2022-12-25T18:33:45.608Z,12.70
2022-12-25T18:36:13.895Z,12.70
2022-12-25T18:38:41.114Z,12.70
2022-12-25T18:41:09.166Z,12.70
2022-12-25T18:43:52.748Z,12.70
2022-12-25T18:46:24.054Z,12.70
2022-12-25T18:48:51.716Z,12.80
2022-12-25T18:51:18.823Z,12.80
2022-12-25T18:53:45.965Z,12.80
2022-12-25T18:56:15.144Z,12.80
2022-12-25T18:58:42.448Z,12.80
2022-12-25T19:01:13.965Z,12.90
2022-12-25T19:03:41.481Z,12.80
2022-12-25T19:06:08.455Z,12.90
2022-12-25T19:08:35.566Z,12.80
2022-12-25T19:11:05.872Z,12.80
2022-12-25T19:13:32.843Z,12.80
2022-12-25T19:15:59.908Z,12.80
2022-12-25T19:18:26.906Z,12.80
2022-12-25T19:20:53.833Z,12.90
2022-12-25T19:23:20.815Z,12.90
2022-12-25T19:25:49.362Z,12.90
2022-12-25T19:28:17.687Z,13.00
2022-12-25T19:30:44.716Z,12.90
2022-12-25T19:33:17.561Z,12.90
2022-12-25T19:35:44.948Z,12.90
2022-12-25T19:38:11.923Z,12.90
2022-12-25T19:40:39.806Z,12.90
2022-12-25T19:43:06.904Z,12.90
2022-12-25T19:45:33.895Z,12.90
2022-12-25T19:48:00.868Z,12.90
2022-12-25T19:50:31.765Z,12.90
2022-12-25T19:52:58.739Z,13.00
2022-12-25T19:55:26.003Z,12.90
2022-12-25T19:57:55.201Z,12.90
2022-12-25T20:00:22.156Z,12.90
2022-12-25T20:02:49.169Z,12.80
2022-12-25T20:05:16.421Z,12.80
2022-12-25T20:07:43.395Z,12.80
2022-12-25T20:10:10.514Z,12.80
2022-12-25T20:12:37.458Z,12.90
2022-12-25T20:15:04.451Z,12.80
2022-12-25T20:17:31.351Z,12.80
2022-12-25T20:19:58.241Z,12.80
2022-12-25T20:22:25.221Z,12.80
2022-12-25T20:24:52.197Z,12.80
2022-12-25T20:27:19.489Z,12.80
2022-12-25T20:29:46.409Z,12.70
2022-12-25T20:32:13.488Z,12.70
2022-12-25T20:34:40.476Z,12.70
2022-12-25T20:37:07.417Z,12.40
2022-12-25T20:39:34.317Z,12.60
2022-12-25T20:42:01.216Z,12.60
2022-12-25T20:44:28.119Z,12.60
2022-12-25T20:46:59.211Z,12.60
2022-12-25T20:49:27.813Z,12.50
2022-12-25T20:51:57.409Z,12.50
2022-12-25T20:54:28.349Z,12.50
2022-12-25T20:56:55.280Z,12.50
2022-12-25T20:59:22.234Z,12.40
2022-12-25T21:01:49.277Z,12.40
2022-12-25T21:04:16.812Z,12.30
2022-12-25T21:06:43.941Z,12.30
2022-12-25T21:09:10.831Z,12.20
2022-12-25T21:11:37.789Z,12.20
2022-12-25T21:14:04.769Z,12.20
2022-12-25T21:16:32.776Z,12.20
2022-12-25T21:18:59.766Z,12.10
2022-12-25T21:21:27.032Z,12.00
2022-12-25T21:23:55.241Z,12.00
2022-12-25T21:26:23.658Z,11.90
2022-12-25T21:28:52.801Z,11.90
2022-12-25T21:31:20.264Z,11.90
2022-12-25T21:33:53.365Z,11.80
2022-12-25T21:36:22.423Z,11.80
2022-12-25T21:38:53.845Z,11.80
2022-12-25T21:41:20.809Z,11.90
2022-12-25T21:43:47.759Z,11.90
2022-12-25T21:46:15.065Z,12.00
2022-12-25T21:48:42.268Z,12.00
2022-12-25T21:51:33.028Z,12.00
2022-12-25T21:54:00.419Z,12.00
2022-12-25T21:56:28.229Z,12.00
2022-12-25T21:58:55.256Z,12.00
2022-12-25T22:01:22.315Z,12.00
2022-12-25T22:03:49.284Z,12.00
2022-12-25T22:06:34.802Z,12.00
2022-12-25T22:09:01.764Z,12.00
2022-12-25T22:11:47.227Z,12.00
2022-12-25T22:14:52.481Z,12.20
2022-12-25T22:17:39.987Z,12.10
2022-12-25T22:20:08.347Z,12.00
2022-12-25T22:22:35.761Z,12.00
2022-12-25T22:25:04.619Z,12.00
2022-12-25T22:27:32.734Z,12.00
2022-12-25T22:29:59.696Z,12.00
2022-12-25T22:32:26.970Z,12.00
2022-12-25T22:34:54.083Z,12.00
2022-12-25T22:37:21.160Z,12.00
2022-12-25T22:39:48.197Z,12.10
2022-12-25T22:42:15.580Z,12.10
2022-12-25T22:44:42.570Z,12.10
2022-12-25T22:47:09.505Z,12.10
2022-12-25T22:49:36.417Z,12.10
2022-12-25T22:52:03.491Z,12.10
2022-12-25T22:54:31.279Z,12.10
2022-12-25T22:56:58.342Z,12.00
2022-12-25T22:59:25.335Z,12.00
2022-12-25T23:01:52.494Z,12.00
2022-12-25T23:04:19.564Z,11.90
2022-12-25T23:06:46.672Z,11.90
2022-12-25T23:09:18.984Z,11.90
2022-12-25T23:11:49.771Z,11.90
2022-12-25T23:14:35.303Z,11.80
2022-12-25T23:17:02.196Z,11.80
2022-12-25T23:19:47.582Z,11.80
2022-12-25T23:22:32.945Z,11.80
2022-12-25T23:25:18.408Z,11.80
2022-12-25T23:27:45.489Z,11.80
2022-12-25T23:30:14.193Z,11.90
2022-12-25T23:32:41.578Z,11.80
2022-12-25T23:35:08.623Z,11.90
2022-12-25T23:37:35.596Z,11.80
2022-12-25T23:40:02.508Z,12.00
2022-12-25T23:42:29.381Z,11.90
2022-12-25T23:44:56.277Z,11.90
2022-12-25T23:47:23.264Z,11.90
2022-12-25T23:49:50.377Z,12.00
2022-12-25T23:52:17.372Z,12.00
2022-12-25T23:54:44.257Z,12.00
2022-12-25T23:57:11.227Z,12.30
2022-12-25T23:59:38.203Z,12.10
